sensor_id;sensor_type;location;lat;lon;timestamp;pressure;altitude;pressure_sealevel;temperature
43292;BMP280;28754;47.700;7.924;2023-06-10T00:01:57;91050.88;;;20.00
43292;BMP280;28754;47.700;7.924;2023-06-10T00:04:46;91042.78;;;20.02
43292;BMP280;28754;47.700;7.924;2023-06-10T00:07:33;91032.25;;;19.98
43292;BMP280;28754;47.700;7.924;2023-06-10T00:10:19;91045.13;;;19.95
43292;BMP280;28754;47.700;7.924;2023-06-10T00:13:07;91044.06;;;19.96
43292;BMP280;28754;47.700;7.924;2023-06-10T00:15:57;91049.00;;;19.89
43292;BMP280;28754;47.700;7.924;2023-06-10T00:18:44;91040.13;;;19.90
43292;BMP280;28754;47.700;7.924;2023-06-10T00:21:33;91049.13;;;19.93
43292;BMP280;28754;47.700;7.924;2023-06-10T00:24:26;91048.50;;;19.96
43292;BMP280;28754;47.700;7.924;2023-06-10T00:27:13;91045.91;;;19.96
43292;BMP280;28754;47.700;7.924;2023-06-10T00:30:00;91055.09;;;19.93
43292;BMP280;28754;47.700;7.924;2023-06-10T00:32:47;91043.81;;;19.89
43292;BMP280;28754;47.700;7.924;2023-06-10T00:35:34;91041.53;;;19.88
43292;BMP280;28754;47.700;7.924;2023-06-10T00:38:20;91037.84;;;19.89
43292;BMP280;28754;47.700;7.924;2023-06-10T00:41:07;91038.50;;;19.86
43292;BMP280;28754;47.700;7.924;2023-06-10T00:43:54;91041.84;;;19.86
43292;BMP280;28754;47.700;7.924;2023-06-10T00:46:40;91035.44;;;19.84
43292;BMP280;28754;47.700;7.924;2023-06-10T00:49:27;91031.34;;;19.83
43292;BMP280;28754;47.700;7.924;2023-06-10T00:52:16;91041.53;;;19.88
43292;BMP280;28754;47.700;7.924;2023-06-10T00:55:04;91041.66;;;19.91
43292;BMP280;28754;47.700;7.924;2023-06-10T00:57:51;91035.81;;;19.94
43292;BMP280;28754;47.700;7.924;2023-06-10T01:00:37;91046.34;;;19.97
43292;BMP280;28754;47.700;7.924;2023-06-10T01:03:24;91046.00;;;19.99
43292;BMP280;28754;47.700;7.924;2023-06-10T01:10:02;91029.97;;;19.97
43292;BMP280;28754;47.700;7.924;2023-06-10T01:13:01;91039.59;;;19.96
43292;BMP280;28754;47.700;7.924;2023-06-10T01:15:51;91044.69;;;19.93
43292;BMP280;28754;47.700;7.924;2023-06-10T01:18:40;91040.13;;;19.90
43292;BMP280;28754;47.700;7.924;2023-06-10T01:21:28;91046.72;;;19.88
43292;BMP280;28754;47.700;7.924;2023-06-10T01:24:15;91051.78;;;19.84
43292;BMP280;28754;47.700;7.924;2023-06-10T01:27:11;91048.00;;;19.82
43292;BMP280;28754;47.700;7.924;2023-06-10T01:30:19;91050.16;;;19.80
43292;BMP280;28754;47.700;7.924;2023-06-10T01:33:11;91044.03;;;19.76
43292;BMP280;28754;47.700;7.924;2023-06-10T01:36:03;91046.84;;;19.71
43292;BMP280;28754;47.700;7.924;2023-06-10T01:38:52;91047.50;;;19.68
43292;BMP280;28754;47.700;7.924;2023-06-10T01:41:40;91050.69;;;19.65
43292;BMP280;28754;47.700;7.924;2023-06-10T01:44:26;91044.66;;;19.61
43292;BMP280;28754;47.700;7.924;2023-06-10T01:47:13;91056.75;;;19.57
43292;BMP280;28754;47.700;7.924;2023-06-10T01:50:00;91047.75;;;19.55
43292;BMP280;28754;47.700;7.924;2023-06-10T01:52:48;91053.25;;;19.53
43292;BMP280;28754;47.700;7.924;2023-06-10T01:55:34;91045.66;;;19.48
43292;BMP280;28754;47.700;7.924;2023-06-10T01:58:21;91053.38;;;19.36
43292;BMP280;28754;47.700;7.924;2023-06-10T02:01:09;91047.50;;;19.27
43292;BMP280;28754;47.700;7.924;2023-06-10T02:03:57;91051.41;;;19.13
43292;BMP280;28754;47.700;7.924;2023-06-10T02:06:44;91045.34;;;19.01
43292;BMP280;28754;47.700;7.924;2023-06-10T02:09:32;91046.00;;;18.90
43292;BMP280;28754;47.700;7.924;2023-06-10T02:12:21;91049.41;;;18.82
43292;BMP280;28754;47.700;7.924;2023-06-10T02:15:07;91042.56;;;18.77
43292;BMP280;28754;47.700;7.924;2023-06-10T02:17:54;91052.31;;;18.80
43292;BMP280;28754;47.700;7.924;2023-06-10T02:20:42;91057.03;;;18.87
43292;BMP280;28754;47.700;7.924;2023-06-10T02:23:28;91061.56;;;18.90
43292;BMP280;28754;47.700;7.924;2023-06-10T02:26:15;91070.13;;;18.90
43292;BMP280;28754;47.700;7.924;2023-06-10T02:29:02;91066.00;;;18.89
43292;BMP280;28754;47.700;7.924;2023-06-10T02:31:50;91070.44;;;18.89
43292;BMP280;28754;47.700;7.924;2023-06-10T02:34:39;91071.19;;;18.89
43292;BMP280;28754;47.700;7.924;2023-06-10T02:37:27;91071.19;;;18.89
43292;BMP280;28754;47.700;7.924;2023-06-10T02:40:15;91072.72;;;18.90
43292;BMP280;28754;47.700;7.924;2023-06-10T02:43:02;91079.44;;;18.91
43292;BMP280;28754;47.700;7.924;2023-06-10T02:45:49;91077.59;;;18.91
43292;BMP280;28754;47.700;7.924;2023-06-10T02:48:43;91081.28;;;18.91
43292;BMP280;28754;47.700;7.924;2023-06-10T02:51:31;91076.84;;;18.91
43292;BMP280;28754;47.700;7.924;2023-06-10T02:54:21;91070.13;;;18.90
43292;BMP280;28754;47.700;7.924;2023-06-10T02:57:08;91074.84;;;18.88
43292;BMP280;28754;47.700;7.924;2023-06-10T02:59:56;91077.78;;;18.87
43292;BMP280;28754;47.700;7.924;2023-06-10T03:02:45;91071.06;;;18.86
43292;BMP280;28754;47.700;7.924;2023-06-10T03:05:33;91082.22;;;18.86
43292;BMP280;28754;47.700;7.924;2023-06-10T03:08:23;91083.28;;;18.85
43292;BMP280;28754;47.700;7.924;2023-06-10T03:11:09;91080.88;;;18.80
43292;BMP280;28754;47.700;7.924;2023-06-10T03:13:57;91078.88;;;18.77
43292;BMP280;28754;47.700;7.924;2023-06-10T03:16:46;91076.63;;;18.76
43292;BMP280;28754;47.700;7.924;2023-06-10T03:19:33;91078.00;;;18.73
43292;BMP280;28754;47.700;7.924;2023-06-10T03:22:20;91085.00;;;18.73
43292;BMP280;28754;47.700;7.924;2023-06-10T03:25:24;91076.00;;;18.70
43292;BMP280;28754;47.700;7.924;2023-06-10T03:28:14;91075.56;;;18.68
43292;BMP280;28754;47.700;7.924;2023-06-10T03:31:01;91075.09;;;18.66
43292;BMP280;28754;47.700;7.924;2023-06-10T03:33:52;91082.44;;;18.64
43292;BMP280;28754;47.700;7.924;2023-06-10T03:36:38;91078.06;;;18.57
43292;BMP280;28754;47.700;7.924;2023-06-10T03:39:29;91082.78;;;18.55
43292;BMP280;28754;47.700;7.924;2023-06-10T03:42:18;91084.94;;;18.53
43292;BMP280;28754;47.700;7.924;2023-06-10T03:45:05;91079.28;;;18.51
43292;BMP280;28754;47.700;7.924;2023-06-10T03:47:54;91087.38;;;18.49
43292;BMP280;28754;47.700;7.924;2023-06-10T03:50:46;91086.78;;;18.52
43292;BMP280;28754;47.700;7.924;2023-06-10T03:53:34;91076.53;;;18.56
43292;BMP280;28754;47.700;7.924;2023-06-10T03:56:20;91083.69;;;18.58
43292;BMP280;28754;47.700;7.924;2023-06-10T03:59:07;91085.66;;;18.61
43292;BMP280;28754;47.700;7.924;2023-06-10T04:01:54;91078.19;;;18.60
43292;BMP280;28754;47.700;7.924;2023-06-10T04:04:41;91087.16;;;18.62
43292;BMP280;28754;47.700;7.924;2023-06-10T04:07:28;91086.41;;;18.62
43292;BMP280;28754;47.700;7.924;2023-06-10T04:10:15;91084.31;;;18.56
43292;BMP280;28754;47.700;7.924;2023-06-10T04:13:02;91088.72;;;18.55
43292;BMP280;28754;47.700;7.924;2023-06-10T04:15:53;91094.69;;;18.56
43292;BMP280;28754;47.700;7.924;2023-06-10T04:18:43;91096.22;;;18.57
43292;BMP280;28754;47.700;7.924;2023-06-10T04:21:31;91093.28;;;18.58
43292;BMP280;28754;47.700;7.924;2023-06-10T04:24:17;91100.31;;;18.57
43292;BMP280;28754;47.700;7.924;2023-06-10T04:27:05;91102.59;;;18.59
43292;BMP280;28754;47.700;7.924;2023-06-10T04:29:52;91093.75;;;18.60
43292;BMP280;28754;47.700;7.924;2023-06-10T04:32:39;91097.88;;;18.61
43292;BMP280;28754;47.700;7.924;2023-06-10T04:35:29;91097.88;;;18.61
43292;BMP280;28754;47.700;7.924;2023-06-10T04:38:19;91102.72;;;18.62
43292;BMP280;28754;47.700;7.924;2023-06-10T04:41:05;91102.13;;;18.65
43292;BMP280;28754;47.700;7.924;2023-06-10T04:43:55;91104.09;;;18.68
43292;BMP280;28754;47.700;7.924;2023-06-10T04:46:42;91106.38;;;18.70
43292;BMP280;28754;47.700;7.924;2023-06-10T04:49:28;91098.75;;;18.73
43292;BMP280;28754;47.700;7.924;2023-06-10T04:52:16;91102.53;;;18.76
43292;BMP280;28754;47.700;7.924;2023-06-10T04:55:03;91099.00;;;18.80
43292;BMP280;28754;47.700;7.924;2023-06-10T04:57:49;91105.41;;;18.83
43292;BMP280;28754;47.700;7.924;2023-06-10T05:00:36;91105.88;;;18.85
43292;BMP280;28754;47.700;7.924;2023-06-10T05:03:23;91109.22;;;18.85
43292;BMP280;28754;47.700;7.924;2023-06-10T05:06:10;91108.56;;;18.88
43292;BMP280;28754;47.700;7.924;2023-06-10T05:08:56;91109.03;;;18.90
43292;BMP280;28754;47.700;7.924;2023-06-10T05:11:43;91111.31;;;18.91
43292;BMP280;28754;47.700;7.924;2023-06-10T05:14:31;91113.63;;;18.93
43292;BMP280;28754;47.700;7.924;2023-06-10T05:17:18;91115.91;;;18.94
43292;BMP280;28754;47.700;7.924;2023-06-10T05:20:05;91112.06;;;19.00
43292;BMP280;28754;47.700;7.924;2023-06-10T05:22:52;91112.97;;;19.04
43292;BMP280;28754;47.700;7.924;2023-06-10T05:25:39;91114.31;;;19.10
43292;BMP280;28754;47.700;7.924;2023-06-10T05:28:26;91116.56;;;19.12
43292;BMP280;28754;47.700;7.924;2023-06-10T05:31:12;91121.16;;;19.15
43292;BMP280;28754;47.700;7.924;2023-06-10T05:33:59;91122.06;;;19.19
43292;BMP280;28754;47.700;7.924;2023-06-10T05:36:46;91117.44;;;19.24
43292;BMP280;28754;47.700;7.924;2023-06-10T05:39:32;91122.13;;;19.30
43292;BMP280;28754;47.700;7.924;2023-06-10T05:42:19;91120.88;;;19.36
43292;BMP280;28754;47.700;7.924;2023-06-10T05:45:06;91122.22;;;19.42
43292;BMP280;28754;47.700;7.924;2023-06-10T05:47:53;91125.38;;;19.48
43292;BMP280;28754;47.700;7.924;2023-06-10T05:50:40;91127.94;;;19.56
43292;BMP280;28754;47.700;7.924;2023-06-10T05:53:28;91125.91;;;19.61
43292;BMP280;28754;47.700;7.924;2023-06-10T05:56:15;91125.72;;;19.66
43292;BMP280;28754;47.700;7.924;2023-06-10T05:59:02;91123.25;;;19.70
43292;BMP280;28754;47.700;7.924;2023-06-10T06:01:49;91130.84;;;19.75
43292;BMP280;28754;47.700;7.924;2023-06-10T06:04:36;91118.78;;;19.79
43292;BMP280;28754;47.700;7.924;2023-06-10T06:07:23;91128.69;;;19.85
43292;BMP280;28754;47.700;7.924;2023-06-10T06:10:10;91122.38;;;19.86
43292;BMP280;28754;47.700;7.924;2023-06-10T06:12:57;91115.78;;;19.89
43292;BMP280;28754;47.700;7.924;2023-06-10T06:15:44;91120.38;;;19.92
43292;BMP280;28754;47.700;7.924;2023-06-10T06:18:31;91121.25;;;19.96
43292;BMP280;28754;47.700;7.924;2023-06-10T06:21:18;91117.88;;;19.95
43292;BMP280;28754;47.700;7.924;2023-06-10T06:24:05;91121.25;;;19.96
43292;BMP280;28754;47.700;7.924;2023-06-10T06:26:52;91125.59;;;20.03
43292;BMP280;28754;47.700;7.924;2023-06-10T06:29:39;91121.75;;;20.09
43292;BMP280;28754;47.700;7.924;2023-06-10T06:32:25;91122.63;;;20.13
43292;BMP280;28754;47.700;7.924;2023-06-10T06:35:13;91120.59;;;20.19
43292;BMP280;28754;47.700;7.924;2023-06-10T06:38:00;91121.34;;;20.19
43292;BMP280;28754;47.700;7.924;2023-06-10T06:40:49;91122.31;;;20.15
43292;BMP280;28754;47.700;7.924;2023-06-10T06:43:36;91128.03;;;20.08
43292;BMP280;28754;47.700;7.924;2023-06-10T06:46:41;91131.16;;;20.02
43292;BMP280;28754;47.700;7.924;2023-06-10T06:49:28;91129.44;;;20.06
43292;BMP280;28754;47.700;7.924;2023-06-10T06:52:15;91141.72;;;20.17
43292;BMP280;28754;47.700;7.924;2023-06-10T06:55:02;91132.31;;;20.25
43292;BMP280;28754;47.700;7.924;2023-06-10T06:57:49;91131.47;;;20.32
43292;BMP280;28754;47.700;7.924;2023-06-10T07:00:36;91126.19;;;20.41
43292;BMP280;28754;47.700;7.924;2023-06-10T07:03:22;91125.53;;;20.44
43292;BMP280;28754;47.700;7.924;2023-06-10T07:06:09;91126.56;;;20.51
43292;BMP280;28754;47.700;7.924;2023-06-10T07:08:56;91126.78;;;20.58
43292;BMP280;28754;47.700;7.924;2023-06-10T07:11:43;91130.53;;;20.69
43292;BMP280;28754;47.700;7.924;2023-06-10T07:14:30;91129.16;;;20.83
43292;BMP280;28754;47.700;7.924;2023-06-10T07:17:17;91126.00;;;20.90
43292;BMP280;28754;47.700;7.924;2023-06-10T07:20:04;91129.16;;;20.95
43292;BMP280;28754;47.700;7.924;2023-06-10T07:22:51;91131.22;;;21.01
43292;BMP280;28754;47.700;7.924;2023-06-10T07:25:38;91138.91;;;21.10
43292;BMP280;28754;47.700;7.924;2023-06-10T07:28:25;91130.13;;;21.14
43292;BMP280;28754;47.700;7.924;2023-06-10T07:31:12;91134.59;;;21.14
43292;BMP280;28754;47.700;7.924;2023-06-10T07:33:58;91131.22;;;21.13
43292;BMP280;28754;47.700;7.924;2023-06-10T07:36:45;91139.03;;;21.13
43292;BMP280;28754;47.700;7.924;2023-06-10T07:39:32;91127.53;;;21.14
43292;BMP280;28754;47.700;7.924;2023-06-10T07:42:18;91140.34;;;21.07
43292;BMP280;28754;47.700;7.924;2023-06-10T07:45:06;91135.88;;;20.96
43292;BMP280;28754;47.700;7.924;2023-06-10T07:47:53;91136.63;;;20.97
43292;BMP280;28754;47.700;7.924;2023-06-10T07:50:39;91135.78;;;21.04
43292;BMP280;28754;47.700;7.924;2023-06-10T07:53:26;91140.66;;;21.18
43292;BMP280;28754;47.700;7.924;2023-06-10T07:56:13;91139.59;;;21.31
43292;BMP280;28754;47.700;7.924;2023-06-10T07:59:00;91141.78;;;21.40
43292;BMP280;28754;47.700;7.924;2023-06-10T08:01:46;91140.03;;;21.56
43292;BMP280;28754;47.700;7.924;2023-06-10T08:04:33;91140.34;;;21.67
43292;BMP280;28754;47.700;7.924;2023-06-10T08:07:21;91142.28;;;21.69
43292;BMP280;28754;47.700;7.924;2023-06-10T08:10:08;91152.59;;;21.66
43292;BMP280;28754;47.700;7.924;2023-06-10T08:12:55;91148.06;;;21.63
43292;BMP280;28754;47.700;7.924;2023-06-10T08:15:42;91146.97;;;21.64
43292;BMP280;28754;47.700;7.924;2023-06-10T08:18:28;91158.03;;;21.73
43292;BMP280;28754;47.700;7.924;2023-06-10T08:21:15;91159.44;;;21.70
43292;BMP280;28754;47.700;7.924;2023-06-10T08:24:03;91155.31;;;21.69
43292;BMP280;28754;47.700;7.924;2023-06-10T08:26:49;91145.84;;;21.77
43292;BMP280;28754;47.700;7.924;2023-06-10T08:29:36;91148.69;;;21.84
43292;BMP280;28754;47.700;7.924;2023-06-10T08:32:23;91151.06;;;21.77
43292;BMP280;28754;47.700;7.924;2023-06-10T08:35:09;91150.50;;;21.83
43292;BMP280;28754;47.700;7.924;2023-06-10T08:37:56;91151.59;;;21.94
43292;BMP280;28754;47.700;7.924;2023-06-10T08:40:43;91154.59;;;21.96
43292;BMP280;28754;47.700;7.924;2023-06-10T08:43:37;91154.28;;;21.98
43292;BMP280;28754;47.700;7.924;2023-06-10T08:46:27;91151.06;;;21.89
43292;BMP280;28754;47.700;7.924;2023-06-10T08:49:18;91147.78;;;21.92
43292;BMP280;28754;47.700;7.924;2023-06-10T08:52:14;91156.25;;;22.01
43292;BMP280;28754;47.700;7.924;2023-06-10T08:55:18;91149.94;;;22.02
43292;BMP280;28754;47.700;7.924;2023-06-10T08:58:06;91153.09;;;22.07
43292;BMP280;28754;47.700;7.924;2023-06-10T09:00:54;91148.28;;;22.09
43292;BMP280;28754;47.700;7.924;2023-06-10T09:03:41;91141.00;;;22.02
43292;BMP280;28754;47.700;7.924;2023-06-10T09:06:28;91147.53;;;22.08
43292;BMP280;28754;47.700;7.924;2023-06-10T09:09:15;91152.22;;;22.03
43292;BMP280;28754;47.700;7.924;2023-06-10T09:12:03;91146.78;;;22.08
43292;BMP280;28754;47.700;7.924;2023-06-10T09:14:50;91144.38;;;22.15
43292;BMP280;28754;47.700;7.924;2023-06-10T09:17:36;91153.63;;;22.12
43292;BMP280;28754;47.700;7.924;2023-06-10T09:20:24;91151.78;;;22.13
43292;BMP280;28754;47.700;7.924;2023-06-10T09:23:12;91150.56;;;22.10
43292;BMP280;28754;47.700;7.924;2023-06-10T09:25:59;91149.28;;;22.04
43292;BMP280;28754;47.700;7.924;2023-06-10T09:28:49;91152.97;;;22.03
43292;BMP280;28754;47.700;7.924;2023-06-10T09:31:39;91146.47;;;21.98
43292;BMP280;28754;47.700;7.924;2023-06-10T09:34:28;91161.16;;;21.90
43292;BMP280;28754;47.700;7.924;2023-06-10T09:37:23;91162.13;;;21.98
43292;BMP280;28754;47.700;7.924;2023-06-10T09:40:11;91160.47;;;22.17
43292;BMP280;28754;47.700;7.924;2023-06-10T09:43:01;91152.41;;;22.22
43292;BMP280;28754;47.700;7.924;2023-06-10T09:45:51;91152.22;;;22.15
43292;BMP280;28754;47.700;7.924;2023-06-10T09:48:44;91146.03;;;22.07
43292;BMP280;28754;47.700;7.924;2023-06-10T09:51:30;91156.25;;;22.12
43292;BMP280;28754;47.700;7.924;2023-06-10T09:54:17;91155.50;;;22.12
43292;BMP280;28754;47.700;7.924;2023-06-10T09:57:08;91157.31;;;22.11
43292;BMP280;28754;47.700;7.924;2023-06-10T09:59:57;91162.53;;;22.11
43292;BMP280;28754;47.700;7.924;2023-06-10T10:02:53;91162.09;;;22.09
43292;BMP280;28754;47.700;7.924;2023-06-10T10:05:40;91159.06;;;22.07
43292;BMP280;28754;47.700;7.924;2023-06-10T10:08:27;91166.22;;;22.10
43292;BMP280;28754;47.700;7.924;2023-06-10T10:11:18;91166.97;;;22.11
43292;BMP280;28754;47.700;7.924;2023-06-10T10:14:06;91159.91;;;22.11
43292;BMP280;28754;47.700;7.924;2023-06-10T10:16:55;91168.72;;;22.19
43292;BMP280;28754;47.700;7.924;2023-06-10T10:19:53;91163.03;;;22.29
43292;BMP280;28754;47.700;7.924;2023-06-10T10:22:43;91159.88;;;22.35
43292;BMP280;28754;47.700;7.924;2023-06-10T10:25:40;91170.09;;;22.28
43292;BMP280;28754;47.700;7.924;2023-06-10T10:28:43;91167.28;;;22.21
43292;BMP280;28754;47.700;7.924;2023-06-10T10:31:34;91163.50;;;22.19
43292;BMP280;28754;47.700;7.924;2023-06-10T10:34:37;91158.84;;;22.12
43292;BMP280;28754;47.700;7.924;2023-06-10T10:37:27;91166.88;;;22.07
43292;BMP280;28754;47.700;7.924;2023-06-10T10:40:14;91167.19;;;22.06
43292;BMP280;28754;47.700;7.924;2023-06-10T10:43:02;91160.56;;;22.08
43292;BMP280;28754;47.700;7.924;2023-06-10T10:46:08;91167.53;;;22.16
43292;BMP280;28754;47.700;7.924;2023-06-10T10:48:57;91159.81;;;22.20
43292;BMP280;28754;47.700;7.924;2023-06-10T10:51:58;91167.91;;;22.30
43292;BMP280;28754;47.700;7.924;2023-06-10T10:54:46;91160.84;;;22.58
43292;BMP280;28754;47.700;7.924;2023-06-10T10:57:38;91159.97;;;22.93
43292;BMP280;28754;47.700;7.924;2023-06-10T11:00:35;91149.25;;;23.28
43292;BMP280;28754;47.700;7.924;2023-06-10T11:03:22;91149.50;;;23.54
43292;BMP280;28754;47.700;7.924;2023-06-10T11:06:13;91154.31;;;23.67
43292;BMP280;28754;47.700;7.924;2023-06-10T11:09:27;91151.09;;;23.74
43292;BMP280;28754;47.700;7.924;2023-06-10T11:12:22;91158.50;;;23.87
43292;BMP280;28754;47.700;7.924;2023-06-10T11:15:11;91151.44;;;24.06
43292;BMP280;28754;47.700;7.924;2023-06-10T11:21:02;91153.06;;;24.29
43292;BMP280;28754;47.700;7.924;2023-06-10T11:23:51;91153.06;;;24.29
43292;BMP280;28754;47.700;7.924;2023-06-10T11:26:44;91144.53;;;24.32
43292;BMP280;28754;47.700;7.924;2023-06-10T11:29:31;91140.34;;;24.28
43292;BMP280;28754;47.700;7.924;2023-06-10T11:32:17;91151.66;;;24.32
43292;BMP280;28754;47.700;7.924;2023-06-10T11:35:07;91158.06;;;24.34
43292;BMP280;28754;47.700;7.924;2023-06-10T11:37:54;91142.91;;;24.43
43292;BMP280;28754;47.700;7.924;2023-06-10T11:40:48;91148.66;;;24.52
43292;BMP280;28754;47.700;7.924;2023-06-10T11:43:37;91140.94;;;24.59
43292;BMP280;28754;47.700;7.924;2023-06-10T11:46:24;91139.44;;;24.58
43292;BMP280;28754;47.700;7.924;2023-06-10T11:49:14;91149.91;;;24.39
43292;BMP280;28754;47.700;7.924;2023-06-10T11:52:04;91156.09;;;24.50
43292;BMP280;28754;47.700;7.924;2023-06-10T11:54:55;91142.97;;;24.47
43292;BMP280;28754;47.700;7.924;2023-06-10T11:57:42;91129.31;;;24.38
43292;BMP280;28754;47.700;7.924;2023-06-10T12:00:28;91145.28;;;24.33
43292;BMP280;28754;47.700;7.924;2023-06-10T12:03:16;91145.28;;;24.33
43292;BMP280;28754;47.700;7.924;2023-06-10T12:06:06;91147.28;;;24.39
43292;BMP280;28754;47.700;7.924;2023-06-10T12:08:54;91135.09;;;24.65
43292;BMP280;28754;47.700;7.924;2023-06-10T12:11:43;91139.88;;;24.82
43292;BMP280;28754;47.700;7.924;2023-06-10T12:14:57;91133.59;;;24.86
43292;BMP280;28754;47.700;7.924;2023-06-10T12:17:43;91129.91;;;24.87
43292;BMP280;28754;47.700;7.924;2023-06-10T12:20:32;91129.47;;;25.04
43292;BMP280;28754;47.700;7.924;2023-06-10T12:23:22;91130.63;;;25.29
43292;BMP280;28754;47.700;7.924;2023-06-10T12:26:09;91128.22;;;25.43
43292;BMP280;28754;47.700;7.924;2023-06-10T12:28:56;91119.34;;;25.47
43292;BMP280;28754;47.700;7.924;2023-06-10T12:32:03;91125.38;;;25.51
43292;BMP280;28754;47.700;7.924;2023-06-10T12:35:03;91119.50;;;25.57
43292;BMP280;28754;47.700;7.924;2023-06-10T12:38:01;91119.56;;;25.61
43292;BMP280;28754;47.700;7.924;2023-06-10T12:40:48;91127.34;;;25.80
43292;BMP280;28754;47.700;7.924;2023-06-10T12:43:35;91114.66;;;25.85
43292;BMP280;28754;47.700;7.924;2023-06-10T12:46:22;91118.34;;;25.81
43292;BMP280;28754;47.700;7.924;2023-06-10T12:49:20;91115.56;;;25.70
43292;BMP280;28754;47.700;7.924;2023-06-10T12:52:07;91120.31;;;25.61
43292;BMP280;28754;47.700;7.924;2023-06-10T12:54:54;91113.44;;;25.53
43292;BMP280;28754;47.700;7.924;2023-06-10T12:57:49;91113.78;;;25.52
43292;BMP280;28754;47.700;7.924;2023-06-10T13:00:36;91106.59;;;25.49
43292;BMP280;28754;47.700;7.924;2023-06-10T13:03:22;91111.06;;;25.45
43292;BMP280;28754;47.700;7.924;2023-06-10T13:06:09;91117.41;;;25.44
43292;BMP280;28754;47.700;7.924;2023-06-10T13:08:55;91109.88;;;25.43
43292;BMP280;28754;47.700;7.924;2023-06-10T13:11:42;91103.44;;;25.37
43292;BMP280;28754;47.700;7.924;2023-06-10T13:14:29;91105.66;;;25.35
43292;BMP280;28754;47.700;7.924;2023-06-10T13:17:16;91095.16;;;25.35
43292;BMP280;28754;47.700;7.924;2023-06-10T13:20:07;91099.66;;;25.34
43292;BMP280;28754;47.700;7.924;2023-06-10T13:22:54;91095.84;;;25.32
43292;BMP280;28754;47.700;7.924;2023-06-10T13:25:40;91086.44;;;25.27
43292;BMP280;28754;47.700;7.924;2023-06-10T13:28:28;91087.72;;;25.37
43292;BMP280;28754;47.700;7.924;2023-06-10T13:31:14;91073.03;;;25.54
43292;BMP280;28754;47.700;7.924;2023-06-10T13:34:01;91079.50;;;25.64
43292;BMP280;28754;47.700;7.924;2023-06-10T13:36:48;91086.47;;;25.79
43292;BMP280;28754;47.700;7.924;2023-06-10T13:39:34;91068.31;;;25.92
43292;BMP280;28754;47.700;7.924;2023-06-10T13:42:21;91077.50;;;26.09
43292;BMP280;28754;47.700;7.924;2023-06-10T13:45:08;91066.75;;;26.17
43292;BMP280;28754;47.700;7.924;2023-06-10T13:47:55;91070.47;;;26.16
43292;BMP280;28754;47.700;7.924;2023-06-10T13:50:42;91074.97;;;26.16
43292;BMP280;28754;47.700;7.924;2023-06-10T13:53:32;91064.91;;;26.18
43292;BMP280;28754;47.700;7.924;2023-06-10T13:56:18;91066.72;;;26.14
43292;BMP280;28754;47.700;7.924;2023-06-10T13:59:05;91075.25;;;26.07
43292;BMP280;28754;47.700;7.924;2023-06-10T14:01:52;91087.91;;;26.02
43292;BMP280;28754;47.700;7.924;2023-06-10T14:04:38;91080.69;;;25.95
43292;BMP280;28754;47.700;7.924;2023-06-10T14:07:25;91071.22;;;25.87
43292;BMP280;28754;47.700;7.924;2023-06-10T14:10:12;91075.28;;;25.82
43292;BMP280;28754;47.700;7.924;2023-06-10T14:12:59;91070.59;;;25.68
43292;BMP280;28754;47.700;7.924;2023-06-10T14:15:46;91062.22;;;25.59
43292;BMP280;28754;47.700;7.924;2023-06-10T14:18:33;91070.06;;;25.56
43292;BMP280;28754;47.700;7.924;2023-06-10T14:21:20;91071.31;;;25.65
43292;BMP280;28754;47.700;7.924;2023-06-10T14:24:07;91068.25;;;25.89
43292;BMP280;28754;47.700;7.924;2023-06-10T14:26:53;91068.56;;;26.13
43292;BMP280;28754;47.700;7.924;2023-06-10T14:29:40;91069.50;;;26.27
43292;BMP280;28754;47.700;7.924;2023-06-10T14:32:27;91060.50;;;26.25
43292;BMP280;28754;47.700;7.924;2023-06-10T14:35:13;91064.91;;;26.18
43292;BMP280;28754;47.700;7.924;2023-06-10T14:38:00;91059.91;;;26.09
43292;BMP280;28754;47.700;7.924;2023-06-10T14:40:47;91068.34;;;25.96
43292;BMP280;28754;47.700;7.924;2023-06-10T14:43:34;91064.06;;;25.85
43292;BMP280;28754;47.700;7.924;2023-06-10T14:46:21;91059.56;;;25.82
43292;BMP280;28754;47.700;7.924;2023-06-10T14:49:07;91056.88;;;25.78
43292;BMP280;28754;47.700;7.924;2023-06-10T14:51:54;91059.81;;;25.73
43292;BMP280;28754;47.700;7.924;2023-06-10T14:54:41;91053.69;;;25.66
43292;BMP280;28754;47.700;7.924;2023-06-10T14:57:27;91055.88;;;25.60
43292;BMP280;28754;47.700;7.924;2023-06-10T15:00:15;91058.78;;;25.55
43292;BMP280;28754;47.700;7.924;2023-06-10T15:03:03;91049.00;;;25.52
43292;BMP280;28754;47.700;7.924;2023-06-10T15:05:50;91056.44;;;25.51
43292;BMP280;28754;47.700;7.924;2023-06-10T15:08:36;91049.00;;;25.52
43292;BMP280;28754;47.700;7.924;2023-06-10T15:11:23;91055.81;;;25.57
43292;BMP280;28754;47.700;7.924;2023-06-10T15:14:10;91047.97;;;25.57
43292;BMP280;28754;47.700;7.924;2023-06-10T15:16:57;91042.06;;;25.63
43292;BMP280;28754;47.700;7.924;2023-06-10T15:19:45;91048.25;;;25.78
43292;BMP280;28754;47.700;7.924;2023-06-10T15:22:32;91052.13;;;25.87
43292;BMP280;28754;47.700;7.924;2023-06-10T15:25:19;91052.19;;;25.94
43292;BMP280;28754;47.700;7.924;2023-06-10T15:28:05;91042.50;;;25.98
43292;BMP280;28754;47.700;7.924;2023-06-10T15:30:52;91048.06;;;25.93
43292;BMP280;28754;47.700;7.924;2023-06-10T15:33:39;91045.22;;;25.76
43292;BMP280;28754;47.700;7.924;2023-06-10T15:36:26;91049.16;;;25.63
43292;BMP280;28754;47.700;7.924;2023-06-10T15:39:13;91037.88;;;25.59
43292;BMP280;28754;47.700;7.924;2023-06-10T15:42:00;91033.38;;;25.59
43292;BMP280;28754;47.700;7.924;2023-06-10T15:44:46;91039.03;;;25.61
43292;BMP280;28754;47.700;7.924;2023-06-10T15:47:33;91031.81;;;25.55
43292;BMP280;28754;47.700;7.924;2023-06-10T15:50:20;91030.63;;;25.52
43292;BMP280;28754;47.700;7.924;2023-06-10T15:53:06;91037.69;;;25.49
43292;BMP280;28754;47.700;7.924;2023-06-10T15:55:53;91036.59;;;25.50
43292;BMP280;28754;47.700;7.924;2023-06-10T15:58:40;91044.50;;;25.53
43292;BMP280;28754;47.700;7.924;2023-06-10T16:01:27;91031.59;;;25.41
43292;BMP280;28754;47.700;7.924;2023-06-10T16:04:14;91025.81;;;25.29
43292;BMP280;28754;47.700;7.924;2023-06-10T16:07:00;91034.97;;;25.16
43292;BMP280;28754;47.700;7.924;2023-06-10T16:09:47;91042.25;;;25.04
43292;BMP280;28754;47.700;7.924;2023-06-10T16:12:34;91041.06;;;24.98
43292;BMP280;28754;47.700;7.924;2023-06-10T16:15:20;91047.38;;;24.97
43292;BMP280;28754;47.700;7.924;2023-06-10T16:18:07;91041.41;;;24.96